createdAt,value
2017-05-03T00:00:15.216Z,0
2017-05-03T00:01:14.927Z,0
2017-05-03T00:02:15.213Z,0
2017-05-03T00:03:15.286Z,0
2017-05-03T00:04:15.335Z,0
2017-05-03T00:05:15.036Z,0
2017-05-03T00:06:15.376Z,0
2017-05-03T00:07:15.649Z,0
2017-05-03T00:08:15.126Z,0
2017-05-03T00:09:15.472Z,0
2017-05-03T00:10:15.484Z,0
2017-05-03T00:11:15.503Z,0
2017-05-03T00:12:15.784Z,0
2017-05-03T00:13:15.257Z,0
2017-05-03T00:14:15.302Z,0
2017-05-03T00:15:15.307Z,0
2017-05-03T00:16:15.649Z,0
2017-05-03T00:17:15.925Z,0
2017-05-03T00:18:15.690Z,0
2017-05-03T00:19:15.106Z,0
2017-05-03T00:20:15.755Z,0
2017-05-03T00:21:15.467Z,0
2017-05-03T00:22:16.060Z,0
2017-05-03T00:23:15.531Z,0
2017-05-03T00:24:15.546Z,0
2017-05-03T00:25:15.891Z,0
2017-05-03T00:26:15.927Z,0
2017-05-03T00:27:15.012Z,0
2017-05-03T00:28:15.657Z,0
2017-05-03T00:29:15.994Z,0
2017-05-03T00:30:15.711Z,0
2017-05-03T00:31:15.740Z,0
2017-05-03T00:32:15.765Z,0
2017-05-03T00:33:15.489Z,0
2017-05-03T00:34:15.818Z,0
2017-05-03T00:35:15.847Z,0
2017-05-03T00:36:15.567Z,0
2017-05-03T00:37:16.212Z,0
2017-05-03T00:38:16.246Z,0
2017-05-03T00:39:15.954Z,0
2017-05-03T00:40:16.294Z,0
2017-05-03T00:41:15.695Z,0
2017-05-03T00:42:16.036Z,0
2017-05-03T00:43:16.373Z,0
2017-05-03T00:44:16.397Z,0
2017-05-03T00:45:16.110Z,0
2017-05-03T00:46:16.138Z,0
2017-05-03T00:47:16.171Z,0
2017-05-03T00:48:16.192Z,0
2017-05-03T00:49:16.245Z,0
2017-05-03T00:50:16.573Z,0
2017-05-03T00:51:16.598Z,0
2017-05-03T00:52:16.301Z,0
2017-05-03T00:53:16.327Z,0
2017-05-03T00:54:16.358Z,0
2017-05-03T00:55:16.385Z,0
2017-05-03T00:56:16.718Z,0
2017-05-03T00:57:16.752Z,0
2017-05-03T00:58:16.795Z,0
2017-05-03T00:59:16.801Z,0
2017-05-03T01:00:16.509Z,0
2017-05-03T01:01:16.859Z,0
2017-05-03T01:02:16.575Z,0
2017-05-03T01:03:16.600Z,0
2017-05-03T01:04:16.639Z,0
2017-05-03T01:05:16.966Z,0
2017-05-03T01:06:16.681Z,0
2017-05-03T01:07:16.715Z,0
2017-05-03T01:08:16.752Z,0
2017-05-03T01:09:16.761Z,0
2017-05-03T01:10:17.105Z,0
2017-05-03T01:11:17.130Z,0
2017-05-03T01:12:17.154Z,0
2017-05-03T01:13:17.219Z,0
2017-05-03T01:14:17.211Z,0
2017-05-03T01:15:16.612Z,0
2017-05-03T01:16:16.950Z,0
2017-05-03T01:17:16.979Z,0
2017-05-03T01:18:17.294Z,0
2017-05-03T01:19:17.348Z,0
2017-05-03T01:20:17.055Z,0
2017-05-03T01:21:17.082Z,0
2017-05-03T01:22:17.111Z,0
2017-05-03T01:23:17.704Z,0
2017-05-03T01:24:17.163Z,0
2017-05-03T01:25:16.881Z,0
2017-05-03T01:26:17.255Z,0
2017-05-03T01:27:17.562Z,0
2017-05-03T01:28:17.528Z,0
2017-05-03T01:29:17.309Z,0
2017-05-03T01:30:17.626Z,0
2017-05-03T01:31:17.665Z,0
2017-05-03T01:32:17.694Z,0
2017-05-03T01:33:17.654Z,0
2017-05-03T01:34:17.747Z,0
2017-05-03T01:35:17.776Z,0
2017-05-03T01:36:17.488Z,0
2017-05-03T01:37:17.517Z,0
2017-05-03T01:38:18.106Z,0
2017-05-03T01:39:17.879Z,0
2017-05-03T01:40:17.916Z,0
2017-05-03T01:41:17.612Z,0
2017-05-03T01:42:17.650Z,0
2017-05-03T01:43:18.237Z,0
2017-05-03T01:44:17.707Z,0
2017-05-03T01:45:17.723Z,0
2017-05-03T01:46:17.445Z,0
2017-05-03T01:47:18.093Z,0
2017-05-03T01:48:18.374Z,0
2017-05-03T01:49:18.151Z,0
2017-05-03T01:50:18.183Z,0
2017-05-03T01:51:17.888Z,0
2017-05-03T01:52:17.924Z,0
2017-05-03T01:53:18.508Z,0
2017-05-03T01:54:17.658Z,0
2017-05-03T01:55:18.307Z,0
2017-05-03T01:56:17.747Z,0
2017-05-03T01:57:18.364Z,0
2017-05-03T01:58:18.641Z,0
2017-05-03T01:59:18.097Z,0
2017-05-03T02:00:18.130Z,0
2017-05-03T02:01:18.154Z,0
2017-05-03T02:02:18.484Z,0
2017-05-03T02:03:18.825Z,0
2017-05-03T02:04:18.553Z,0
2017-05-03T02:05:18.270Z,0
2017-05-03T02:06:18.601Z,0
2017-05-03T02:07:18.320Z,0
2017-05-03T02:08:18.920Z,0
2017-05-03T02:09:18.693Z,0
2017-05-03T02:10:18.706Z,0
2017-05-03T02:11:18.427Z,0
2017-05-03T02:12:18.141Z,0
2017-05-03T02:13:19.044Z,0
2017-05-03T02:14:18.558Z,0
2017-05-03T02:15:18.529Z,0
2017-05-03T02:16:18.587Z,0
2017-05-03T02:17:18.586Z,0
2017-05-03T02:18:18.852Z,0
2017-05-03T02:19:18.653Z,0
2017-05-03T02:20:18.990Z,0
2017-05-03T02:21:18.999Z,0
2017-05-03T02:22:18.715Z,0
2017-05-03T02:23:19.316Z,0
2017-05-03T02:24:18.145Z,0
2017-05-03T02:25:18.796Z,0
2017-05-03T02:26:18.822Z,0
2017-05-03T02:27:18.850Z,0
2017-05-03T02:28:19.120Z,0
2017-05-03T02:29:19.217Z,0
2017-05-03T02:30:18.933Z,0
2017-05-03T02:31:18.637Z,0
2017-05-03T02:32:19.295Z,0
2017-05-03T02:33:19.570Z,0
2017-05-03T02:34:19.036Z,0
2017-05-03T02:35:19.069Z,0
2017-05-03T02:36:19.098Z,0
2017-05-03T02:37:19.430Z,0
2017-05-03T02:38:19.456Z,0
2017-05-03T02:39:19.493Z,0
2017-05-03T02:40:19.209Z,0
2017-05-03T02:41:19.249Z,0
2017-05-03T02:42:19.253Z,0
2017-05-03T02:43:19.282Z,0
2017-05-03T02:44:18.996Z,0
2017-05-03T02:45:19.013Z,0
2017-05-03T02:46:19.669Z,0
2017-05-03T02:47:19.386Z,0
2017-05-03T02:48:19.726Z,0
2017-05-03T02:49:19.744Z,0
2017-05-03T02:50:19.464Z,0
2017-05-03T02:51:19.809Z,0
2017-05-03T02:52:19.519Z,0
2017-05-03T02:53:19.543Z,0
2017-05-03T02:54:19.881Z,0
2017-05-03T02:55:19.921Z,0
2017-05-03T02:56:19.629Z,0
2017-05-03T02:57:19.961Z,0
2017-05-03T02:58:19.988Z,0
2017-05-03T02:59:20.014Z,0
2017-05-03T03:00:19.730Z,0
2017-05-03T03:01:20.085Z,0
2017-05-03T03:02:19.793Z,0
2017-05-03T03:03:20.134Z,0
2017-05-03T03:04:20.148Z,0
2017-05-03T03:05:20.164Z,0
2017-05-03T03:06:20.196Z,0
2017-05-03T03:07:19.917Z,0
2017-05-03T03:08:20.253Z,0
2017-05-03T03:09:19.654Z,0
2017-05-03T03:10:19.683Z,0
2017-05-03T03:11:19.703Z,0
2017-05-03T03:12:20.081Z,0
2017-05-03T03:13:20.078Z,0
2017-05-03T03:14:20.355Z,0
2017-05-03T03:15:20.438Z,0
2017-05-03T03:16:19.855Z,0
2017-05-03T03:17:20.181Z,0
2017-05-03T03:18:20.212Z,0
2017-05-03T03:19:20.479Z,0
2017-05-03T03:20:20.263Z,0
2017-05-03T03:21:20.283Z,0
2017-05-03T03:22:20.624Z,0
2017-05-03T03:23:20.662Z,0
2017-05-03T03:24:20.618Z,0
2017-05-03T03:25:20.078Z,0
2017-05-03T03:26:20.422Z,0
2017-05-03T03:27:20.761Z,0
2017-05-03T03:28:20.784Z,0
2017-05-03T03:29:20.744Z,0
2017-05-03T03:30:20.835Z,0
2017-05-03T03:31:20.852Z,0
2017-05-03T03:32:20.585Z,0
2017-05-03T03:33:20.293Z,0
2017-05-03T03:34:20.885Z,0
2017-05-03T03:35:20.658Z,0
2017-05-03T03:36:20.998Z,0
2017-05-03T03:37:20.715Z,0
2017-05-03T03:38:20.441Z,0
2017-05-03T03:39:21.021Z,0
2017-05-03T03:40:20.790Z,0
2017-05-03T03:41:20.193Z,0
2017-05-03T03:42:20.836Z,0
2017-05-03T03:43:21.193Z,0
2017-05-03T03:44:21.468Z,0
2017-05-03T03:45:21.241Z,0
2017-05-03T03:46:21.265Z,0
2017-05-03T03:47:21.292Z,0
2017-05-03T03:48:21.320Z,0
2017-05-03T03:49:20.972Z,0
2017-05-03T03:50:21.056Z,4
2017-05-03T03:51:21.082Z,4
2017-05-03T03:52:21.110Z,4
2017-05-03T03:53:21.151Z,4
2017-05-03T03:54:21.452Z,0
2017-05-03T03:55:21.505Z,4
2017-05-03T03:56:20.590Z,4
2017-05-03T03:57:21.273Z,4
2017-05-03T03:58:21.270Z,4
2017-05-03T03:59:21.865Z,4
2017-05-03T04:00:21.320Z,8
2017-05-03T04:01:21.361Z,8
2017-05-03T04:02:21.689Z,12
2017-05-03T04:03:21.092Z,12
2017-05-03T04:04:22.000Z,12
2017-05-03T04:05:21.452Z,16
2017-05-03T04:06:21.801Z,12
2017-05-03T04:07:21.509Z,16
2017-05-03T04:08:21.225Z,16
2017-05-03T04:09:22.131Z,20
2017-05-03T04:10:21.905Z,24
2017-05-03T04:11:21.312Z,28
2017-05-03T04:12:21.642Z,28
2017-05-03T04:13:21.978Z,36
2017-05-03T04:14:21.946Z,44
2017-05-03T04:15:21.719Z,44
2017-05-03T04:16:22.064Z,52
2017-05-03T04:17:22.090Z,52
2017-05-03T04:18:22.118Z,60
2017-05-03T04:19:22.071Z,64
2017-05-03T04:20:21.855Z,76
2017-05-03T04:21:21.877Z,76
2017-05-03T04:22:22.221Z,84
2017-05-03T04:23:22.246Z,88
2017-05-03T04:24:22.530Z,96
2017-05-03T04:25:21.987Z,104
2017-05-03T04:26:22.016Z,108
2017-05-03T04:27:22.353Z,120
2017-05-03T04:28:22.389Z,128
2017-05-03T04:29:22.350Z,136
2017-05-03T04:30:22.131Z,144
2017-05-03T04:31:22.468Z,156
2017-05-03T04:32:22.182Z,164
2017-05-03T04:33:22.202Z,176
2017-05-03T04:34:22.790Z,180
2017-05-03T04:35:22.263Z,188
2017-05-03T04:36:22.276Z,192
2017-05-03T04:37:22.300Z,196
2017-05-03T04:38:22.655Z,200
2017-05-03T04:39:22.918Z,204
2017-05-03T04:40:22.067Z,208
2017-05-03T04:41:22.720Z,216
2017-05-03T04:42:22.742Z,220
2017-05-03T04:43:22.468Z,232
2017-05-03T04:44:22.489Z,244
2017-05-03T04:45:22.515Z,256
2017-05-03T04:46:22.860Z,272
2017-05-03T04:47:22.573Z,284
2017-05-03T04:48:22.913Z,296
2017-05-03T04:49:22.933Z,308
2017-05-03T04:50:22.962Z,324
2017-05-03T04:51:22.986Z,340
2017-05-03T04:52:23.009Z,348
2017-05-03T04:53:23.041Z,364
2017-05-03T04:54:22.766Z,384
2017-05-03T04:55:23.349Z,400
2017-05-03T04:56:22.502Z,420
2017-05-03T04:57:23.147Z,448
2017-05-03T04:58:22.853Z,464
2017-05-03T04:59:23.205Z,488
2017-05-03T05:00:23.171Z,508
2017-05-03T05:01:23.250Z,524
2017-05-03T05:02:23.279Z,536
2017-05-03T05:03:23.309Z,536
2017-05-03T05:04:23.337Z,548
2017-05-03T05:05:23.610Z,556
2017-05-03T05:06:23.381Z,580
2017-05-03T05:07:23.395Z,604
2017-05-03T05:08:23.451Z,628
2017-05-03T05:09:23.469Z,644
2017-05-03T05:10:23.421Z,656
2017-05-03T05:11:23.513Z,668
2017-05-03T05:12:23.540Z,684
2017-05-03T05:13:23.256Z,704
2017-05-03T05:14:23.592Z,712
2017-05-03T05:15:23.252Z,724
2017-05-03T05:16:23.650Z,732
2017-05-03T05:17:23.666Z,732
2017-05-03T05:18:23.397Z,744
2017-05-03T05:19:23.728Z,736
2017-05-03T05:20:23.704Z,724
2017-05-03T05:21:23.781Z,744
2017-05-03T05:22:23.499Z,740
2017-05-03T05:23:23.526Z,740
2017-05-03T05:24:23.555Z,736
2017-05-03T05:25:23.517Z,712
2017-05-03T05:26:23.918Z,692
2017-05-03T05:27:23.628Z,668
2017-05-03T05:28:23.976Z,652
2017-05-03T05:29:23.749Z,636
2017-05-03T05:30:23.959Z,628
2017-05-03T05:31:24.046Z,624
2017-05-03T05:32:23.762Z,612
2017-05-03T05:33:23.783Z,600
2017-05-03T05:34:23.820Z,604
2017-05-03T05:35:24.404Z,608
2017-05-03T05:36:24.180Z,620
2017-05-03T05:37:24.210Z,636
2017-05-03T05:38:24.231Z,660
2017-05-03T05:39:24.250Z,684
2017-05-03T05:40:24.543Z,712
2017-05-03T05:41:24.268Z,732
2017-05-03T05:42:24.349Z,756
2017-05-03T05:43:24.363Z,768
2017-05-03T05:44:24.091Z,796
2017-05-03T05:45:24.684Z,804
2017-05-03T05:46:23.884Z,808
2017-05-03T05:47:24.161Z,832
2017-05-03T05:48:23.867Z,872
2017-05-03T05:49:24.526Z,924
2017-05-03T05:50:24.486Z,980
2017-05-03T05:51:24.568Z,1032
2017-05-03T05:52:24.605Z,1084
2017-05-03T05:53:24.326Z,1112
2017-05-03T05:54:24.655Z,1136
2017-05-03T05:55:24.930Z,1124
2017-05-03T05:56:24.092Z,1120
2017-05-03T05:57:24.420Z,1160
2017-05-03T05:58:24.766Z,1176
2017-05-03T05:59:24.469Z,1188
2017-05-03T06:00:24.762Z,1192
2017-05-03T06:01:24.532Z,1180
2017-05-03T06:02:24.240Z,1160
2017-05-03T06:03:24.905Z,1120
2017-05-03T06:04:24.924Z,1108
2017-05-03T06:05:24.886Z,1104
2017-05-03T06:06:24.659Z,1120
2017-05-03T06:07:24.689Z,1124
2017-05-03T06:08:24.721Z,1104
2017-05-03T06:09:24.747Z,1092
2017-05-03T06:10:25.018Z,1072
2017-05-03T06:11:25.111Z,1080
2017-05-03T06:12:24.832Z,1084
2017-05-03T06:13:25.160Z,1088
2017-05-03T06:14:24.878Z,1088
2017-05-03T06:15:25.458Z,1084
2017-05-03T06:16:24.930Z,1064
2017-05-03T06:17:25.272Z,1048
2017-05-03T06:18:24.992Z,1036
2017-05-03T06:19:25.326Z,1036
2017-05-03T06:20:25.284Z,1036
2017-05-03T06:21:25.390Z,1036
2017-05-03T06:22:25.106Z,1048
2017-05-03T06:23:25.436Z,1068
2017-05-03T06:24:25.456Z,1096
2017-05-03T06:25:25.421Z,1088
2017-05-03T06:26:25.510Z,1104
2017-05-03T06:27:25.536Z,1124
2017-05-03T06:28:25.588Z,1152
2017-05-03T06:29:25.273Z,1196
2017-05-03T06:30:25.862Z,1216
2017-05-03T06:31:25.642Z,1232
2017-05-03T06:32:25.359Z,1240
2017-05-03T06:33:25.696Z,1264
2017-05-03T06:34:25.729Z,1312
2017-05-03T06:35:25.424Z,1348
2017-05-03T06:36:25.486Z,1368
2017-05-03T06:37:25.810Z,1396
2017-05-03T06:38:25.825Z,1436
2017-05-03T06:39:25.857Z,1480
2017-05-03T06:40:25.877Z,1504
2017-05-03T06:41:25.909Z,1544
2017-05-03T06:42:25.618Z,1580
2017-05-03T06:43:25.644Z,1620
2017-05-03T06:44:25.365Z,1640
2017-05-03T06:45:26.013Z,1668
2017-05-03T06:46:25.987Z,1700
2017-05-03T06:47:25.783Z,1728
2017-05-03T06:48:25.472Z,1772
2017-05-03T06:49:26.152Z,1796
2017-05-03T06:50:26.149Z,1804
2017-05-03T06:51:26.109Z,1816
2017-05-03T06:52:26.194Z,1840
2017-05-03T06:53:26.223Z,1892
2017-05-03T06:54:26.249Z,1936
2017-05-03T06:55:26.280Z,1968
2017-05-03T06:56:25.946Z,1984
2017-05-03T06:57:26.018Z,1988
2017-05-03T06:58:26.360Z,1980
2017-05-03T06:59:26.392Z,1964
2017-05-03T07:00:26.105Z,1956
2017-05-03T07:01:26.692Z,1964
2017-05-03T07:02:26.466Z,1964
2017-05-03T07:03:26.490Z,1960
2017-05-03T07:04:26.212Z,1952
2017-05-03T07:05:26.238Z,1924
2017-05-03T07:06:26.826Z,1912
2017-05-03T07:07:26.284Z,1872
2017-05-03T07:08:26.628Z,1828
2017-05-03T07:09:26.340Z,1788
2017-05-03T07:10:26.676Z,1744
2017-05-03T07:11:26.965Z,1732
2017-05-03T07:12:26.733Z,1748
2017-05-03T07:13:26.135Z,1760
2017-05-03T07:14:26.788Z,1772
2017-05-03T07:15:26.845Z,1756
2017-05-03T07:16:27.097Z,1740
2017-05-03T07:17:26.869Z,1740
2017-05-03T07:18:26.579Z,1740
2017-05-03T07:19:26.969Z,1724
2017-05-03T07:20:26.954Z,1720
2017-05-03T07:21:26.604Z,1712
2017-05-03T07:22:26.378Z,1712
2017-05-03T07:23:27.022Z,1716
2017-05-03T07:24:27.051Z,1724
2017-05-03T07:25:26.768Z,1712
2017-05-03T07:26:27.045Z,1708
2017-05-03T07:27:26.513Z,1732
2017-05-03T07:28:26.537Z,1768
2017-05-03T07:29:27.195Z,1796
2017-05-03T07:30:27.224Z,1776
2017-05-03T07:31:27.184Z,1732
2017-05-03T07:32:26.961Z,1752
2017-05-03T07:33:26.994Z,1820
2017-05-03T07:34:27.328Z,1932
2017-05-03T07:35:27.351Z,2044
2017-05-03T07:36:27.633Z,2160
2017-05-03T07:37:27.401Z,2240
2017-05-03T07:38:27.429Z,2308
2017-05-03T07:39:27.139Z,2364
2017-05-03T07:40:27.179Z,2392
2017-05-03T07:41:27.769Z,2392
2017-05-03T07:42:27.532Z,2400
2017-05-03T07:43:27.573Z,2388
2017-05-03T07:44:26.965Z,2356
2017-05-03T07:45:27.624Z,2336
2017-05-03T07:46:27.900Z,2320
2017-05-03T07:47:27.360Z,2352
2017-05-03T07:48:27.696Z,2396
2017-05-03T07:49:27.419Z,2424
2017-05-03T07:50:27.760Z,2436
2017-05-03T07:51:28.024Z,2408
2017-05-03T07:52:27.801Z,2364
2017-05-03T07:53:27.833Z,2344
2017-05-03T07:54:27.862Z,2352
2017-05-03T07:55:27.568Z,2416
2017-05-03T07:56:27.853Z,2544
2017-05-03T07:57:27.940Z,2680
2017-05-03T07:58:27.655Z,2848
2017-05-03T07:59:28.003Z,3064
2017-05-03T08:00:27.703Z,3320
2017-05-03T08:01:27.987Z,3584
2017-05-03T08:02:28.077Z,3844
2017-05-03T08:03:27.792Z,4076
2017-05-03T08:04:27.822Z,4192
2017-05-03T08:05:27.848Z,4284
2017-05-03T08:06:28.123Z,4236
2017-05-03T08:07:27.909Z,4108
2017-05-03T08:08:27.933Z,4096
2017-05-03T08:09:28.286Z,4140
2017-05-03T08:10:27.663Z,4168
2017-05-03T08:11:28.571Z,4108
2017-05-03T08:12:28.357Z,4040
2017-05-03T08:13:28.061Z,3968
2017-05-03T08:14:28.402Z,3848
2017-05-03T08:15:28.426Z,3728
2017-05-03T08:16:28.702Z,3636
2017-05-03T08:17:28.168Z,3552
2017-05-03T08:18:28.520Z,3424
2017-05-03T08:19:28.227Z,3256
2017-05-03T08:20:28.567Z,3168
2017-05-03T08:21:28.278Z,3120
2017-05-03T08:22:27.989Z,3040
2017-05-03T08:23:28.329Z,2992
2017-05-03T08:24:27.735Z,3024
2017-05-03T08:25:28.385Z,3072
2017-05-03T08:26:28.724Z,3108
2017-05-03T08:27:28.788Z,3116
2017-05-03T08:28:28.472Z,3104
2017-05-03T08:29:28.810Z,3148
2017-05-03T08:30:28.841Z,3280
2017-05-03T08:31:28.863Z,3420
2017-05-03T08:32:28.580Z,3412
2017-05-03T08:33:28.916Z,3148
2017-05-03T08:34:28.938Z,2956
2017-05-03T08:35:28.974Z,2872
2017-05-03T08:36:28.425Z,2808
2017-05-03T08:37:29.032Z,2864
2017-05-03T08:38:29.059Z,3224
2017-05-03T08:39:28.773Z,3716
2017-05-03T08:40:29.142Z,4032
2017-05-03T08:41:29.135Z,3992
2017-05-03T08:42:29.156Z,3796
2017-05-03T08:43:28.872Z,3612
2017-05-03T08:44:29.222Z,3428
2017-05-03T08:45:29.240Z,3300
2017-05-03T08:46:28.962Z,3152
2017-05-03T08:47:29.606Z,3072
2017-05-03T08:48:29.340Z,3056
2017-05-03T08:49:29.038Z,3024
2017-05-03T08:50:28.758Z,2996
2017-05-03T08:51:29.096Z,3032
2017-05-03T08:52:29.722Z,3120
2017-05-03T08:53:29.467Z,3300
2017-05-03T08:54:29.489Z,3520
2017-05-03T08:55:29.514Z,3760
2017-05-03T08:56:29.225Z,4024
2017-05-03T08:57:29.817Z,4164
2017-05-03T08:58:29.599Z,4176
2017-05-03T08:59:29.632Z,4112
2017-05-03T09:00:29.656Z,4048
2017-05-03T09:01:29.675Z,3916
2017-05-03T09:02:29.644Z,3644
2017-05-03T09:03:29.424Z,3404
2017-05-03T09:04:29.763Z,3264
2017-05-03T09:05:29.797Z,3128
2017-05-03T09:06:29.500Z,2948
2017-05-03T09:07:30.094Z,2840
2017-05-03T09:08:29.559Z,2828
2017-05-03T09:09:29.897Z,2852
2017-05-03T09:10:29.305Z,2884
2017-05-03T09:11:29.952Z,2904
2017-05-03T09:12:30.238Z,2900
2017-05-03T09:13:29.392Z,2932
2017-05-03T09:14:30.040Z,3040
2017-05-03T09:15:30.101Z,3160
2017-05-03T09:16:29.782Z,3244
2017-05-03T09:17:30.404Z,3316
2017-05-03T09:18:30.152Z,3360
2017-05-03T09:19:30.180Z,3360
2017-05-03T09:20:30.205Z,3360
2017-05-03T09:21:29.918Z,3392
2017-05-03T09:22:30.511Z,3480
2017-05-03T09:23:29.975Z,3556
2017-05-03T09:24:30.003Z,3676
2017-05-03T09:25:30.344Z,3916
2017-05-03T09:26:30.061Z,4256
2017-05-03T09:27:30.646Z,4700
2017-05-03T09:28:30.119Z,4912
2017-05-03T09:29:30.452Z,5096
2017-05-03T09:30:30.165Z,4804
2017-05-03T09:31:30.505Z,4460
2017-05-03T09:32:30.785Z,4040
2017-05-03T09:33:30.567Z,3840
2017-05-03T09:34:30.283Z,3636
2017-05-03T09:35:30.620Z,3604
2017-05-03T09:36:30.331Z,3592
2017-05-03T09:37:30.927Z,3612
2017-05-03T09:38:30.702Z,3760
2017-05-03T09:39:30.720Z,3928
2017-05-03T09:40:30.747Z,4040
2017-05-03T09:41:30.780Z,4084
2017-05-03T09:42:30.754Z,4072
2017-05-03T09:43:30.522Z,4068
2017-05-03T09:44:30.554Z,4092
2017-05-03T09:45:30.580Z,4080
2017-05-03T09:46:30.599Z,4036
2017-05-03T09:47:30.921Z,4060
2017-05-03T09:48:30.978Z,4140
2017-05-03T09:49:31.004Z,4240
2017-05-03T09:50:31.043Z,4240
2017-05-03T09:51:30.741Z,4312
2017-05-03T09:52:31.029Z,4380
2017-05-03T09:53:31.119Z,4380
2017-05-03T09:54:31.184Z,4396
2017-05-03T09:55:30.856Z,4360
2017-05-03T09:56:31.206Z,4296
2017-05-03T09:57:31.165Z,4276
2017-05-03T09:58:30.943Z,4164
2017-05-03T09:59:30.971Z,4028
2017-05-03T10:00:31.303Z,3852
2017-05-03T10:01:31.326Z,3568
2017-05-03T10:02:31.308Z,3292
2017-05-03T10:03:31.393Z,3132
2017-05-03T10:04:31.423Z,3032
2017-05-03T10:05:31.447Z,2964
2017-05-03T10:06:30.849Z,2884
2017-05-03T10:07:31.756Z,2868
2017-05-03T10:08:31.224Z,2804
2017-05-03T10:09:31.562Z,2792
2017-05-03T10:10:31.274Z,2836
2017-05-03T10:11:31.619Z,2916
2017-05-03T10:12:31.644Z,3032
2017-05-03T10:13:31.366Z,3168
2017-05-03T10:14:31.391Z,3288
2017-05-03T10:15:31.727Z,3392
2017-05-03T10:16:31.747Z,3480
2017-05-03T10:17:31.784Z,3640
2017-05-03T10:18:31.500Z,3948
2017-05-03T10:19:31.837Z,4336
2017-05-03T10:20:31.558Z,4728
2017-05-03T10:21:31.575Z,4984
2017-05-03T10:22:31.920Z,5240
2017-05-03T10:23:31.945Z,5448
2017-05-03T10:24:31.654Z,5696
2017-05-03T10:25:31.690Z,5980
2017-05-03T10:26:31.404Z,6164
2017-05-03T10:27:31.747Z,6148
2017-05-03T10:28:32.090Z,5988
2017-05-03T10:29:32.122Z,5848
2017-05-03T10:30:32.143Z,5864
2017-05-03T10:31:32.175Z,5816
2017-05-03T10:32:32.200Z,5736
2017-05-03T10:33:31.597Z,5620
2017-05-03T10:34:31.937Z,5544
2017-05-03T10:35:32.271Z,5464
2017-05-03T10:36:31.995Z,5436
2017-05-03T10:37:32.336Z,5328
2017-05-03T10:38:32.369Z,5204
2017-05-03T10:39:32.393Z,5056
2017-05-03T10:40:32.414Z,4872
2017-05-03T10:41:32.134Z,4640
2017-05-03T10:42:32.178Z,4464
2017-05-03T10:43:32.133Z,4300
2017-05-03T10:44:32.538Z,4192
2017-05-03T10:45:32.563Z,4232
2017-05-03T10:46:32.587Z,4392
2017-05-03T10:47:32.616Z,4528
2017-05-03T10:48:32.902Z,4684
2017-05-03T10:49:32.053Z,4848
2017-05-03T10:50:32.696Z,5072
2017-05-03T10:51:32.095Z,5640
2017-05-03T10:52:32.448Z,5820
2017-05-03T10:53:33.030Z,6872
2017-05-03T10:54:32.501Z,7824
2017-05-03T10:55:32.845Z,8300
2017-05-03T10:56:32.866Z,7464
2017-05-03T10:57:32.609Z,6256
2017-05-03T10:58:33.177Z,5120
2017-05-03T10:59:32.948Z,4668
2017-05-03T11:00:32.975Z,4688
2017-05-03T11:01:32.695Z,4824
2017-05-03T11:02:33.036Z,4992
2017-05-03T11:03:33.315Z,4936
2017-05-03T11:04:33.084Z,4876
2017-05-03T11:05:33.115Z,4704
2017-05-03T11:06:33.150Z,4900
2017-05-03T11:07:32.879Z,4608
2017-05-03T11:08:33.443Z,3756
2017-05-03T11:09:33.233Z,2744
2017-05-03T11:10:32.948Z,1912
2017-05-03T11:11:33.300Z,1368
2017-05-03T11:12:32.995Z,1128
2017-05-03T11:13:33.596Z,1052
2017-05-03T11:14:33.369Z,1076
2017-05-03T11:15:33.399Z,1108
2017-05-03T11:16:33.446Z,1172
2017-05-03T11:17:33.146Z,1248
2017-05-03T11:18:33.732Z,1260
2017-05-03T11:19:33.512Z,1228
2017-05-03T11:20:33.537Z,1200
2017-05-03T11:21:33.253Z,1184
2017-05-03T11:22:33.307Z,1176
2017-05-03T11:23:33.871Z,1164
2017-05-03T11:24:33.656Z,1156
2017-05-03T11:25:33.686Z,1196
2017-05-03T11:26:33.403Z,1268
2017-05-03T11:27:33.110Z,1372
2017-05-03T11:28:33.699Z,1504
2017-05-03T11:29:33.795Z,1628
2017-05-03T11:30:33.193Z,1724
2017-05-03T11:31:33.857Z,1856
2017-05-03T11:32:33.875Z,1996
2017-05-03T11:33:33.855Z,2052
2017-05-03T11:34:33.940Z,2012
2017-05-03T11:35:33.960Z,1876
2017-05-03T11:36:33.681Z,1748
2017-05-03T11:37:33.703Z,1672
2017-05-03T11:38:34.305Z,1692
2017-05-03T11:39:34.081Z,1772
2017-05-03T11:40:33.784Z,1868
2017-05-03T11:41:33.859Z,1936
2017-05-03T11:42:33.841Z,1972
2017-05-03T11:43:34.119Z,1944
2017-05-03T11:44:34.211Z,1824
2017-05-03T11:45:33.920Z,1684
2017-05-03T11:46:33.958Z,1572
2017-05-03T11:47:34.290Z,1504
2017-05-03T11:48:34.262Z,1444
2017-05-03T11:49:34.362Z,1372
2017-05-03T11:50:34.376Z,1340
2017-05-03T11:51:34.096Z,1340
2017-05-03T11:52:34.114Z,1400
2017-05-03T11:53:34.396Z,1560
2017-05-03T11:54:34.500Z,1764
2017-05-03T11:55:34.515Z,1948
2017-05-03T11:56:34.546Z,2100
2017-05-03T11:57:34.573Z,2220
2017-05-03T11:58:34.853Z,2308
2017-05-03T11:59:34.624Z,2360
2017-05-03T12:00:34.335Z,2384
2017-05-03T12:01:34.386Z,2364
2017-05-03T12:02:34.389Z,2372
2017-05-03T12:03:34.990Z,2432
2017-05-03T12:04:34.455Z,2508
2017-05-03T12:05:34.801Z,2584
2017-05-03T12:06:34.822Z,2620
2017-05-03T12:07:34.846Z,2632
2017-05-03T12:08:35.139Z,2612
2017-05-03T12:09:34.594Z,2652
2017-05-03T12:10:34.607Z,3088
2017-05-03T12:11:34.961Z,4952
2017-05-03T12:12:34.665Z,6768
2017-05-03T12:13:34.953Z,11664
2017-05-03T12:14:35.038Z,15532
2017-05-03T12:15:34.752Z,20128
2017-05-03T12:16:35.096Z,19136
2017-05-03T12:17:34.810Z,23232
2017-05-03T12:18:35.398Z,24288
2017-05-03T12:19:35.183Z,34496
2017-05-03T12:20:34.900Z,45056
2017-05-03T12:21:34.920Z,52256
2017-05-03T12:22:35.264Z,30656
2017-05-03T12:23:35.229Z,16328
2017-05-03T12:24:35.322Z,19392
2017-05-03T12:25:35.036Z,13408
2017-05-03T12:26:35.384Z,11532
2017-05-03T12:27:35.409Z,13256
2017-05-03T12:28:35.678Z,9208
2017-05-03T12:29:34.843Z,8404
2017-05-03T12:30:35.500Z,7600
2017-05-03T12:31:35.220Z,6816
2017-05-03T12:32:35.550Z,6408
2017-05-03T12:33:35.841Z,7764
2017-05-03T12:34:35.602Z,20736
2017-05-03T12:35:35.647Z,52800
2017-05-03T12:36:35.371Z,49120
2017-05-03T12:37:35.701Z,22272
2017-05-03T12:38:35.981Z,35648
2017-05-03T12:39:35.454Z,37024
2017-05-03T12:40:35.480Z,16648
2017-05-03T12:41:35.512Z,11100
2017-05-03T12:42:35.220Z,11880
2017-05-03T12:43:36.132Z,19328
2017-05-03T12:44:35.599Z,32288
2017-05-03T12:45:35.623Z,16760
2017-05-03T12:46:35.963Z,12512
2017-05-03T12:47:36.004Z,11728
2017-05-03T12:48:36.281Z,11716
2017-05-03T12:49:35.422Z,11092
2017-05-03T12:50:36.093Z,11272
2017-05-03T12:51:35.800Z,21984
2017-05-03T12:52:35.832Z,9724
2017-05-03T12:53:36.433Z,8760
2017-05-03T12:54:36.223Z,8160
2017-05-03T12:55:36.230Z,8424
2017-05-03T12:56:36.262Z,8156
2017-05-03T12:57:36.300Z,8464
2017-05-03T12:58:36.569Z,9320
2017-05-03T12:59:36.354Z,10752
2017-05-03T13:00:36.074Z,15704
2017-05-03T13:01:36.412Z,15004
2017-05-03T13:02:36.445Z,12556
2017-05-03T13:03:36.452Z,12772
2017-05-03T13:04:36.506Z,26176
2017-05-03T13:05:36.546Z,27136
2017-05-03T13:06:36.556Z,13352
2017-05-03T13:07:35.976Z,10288
2017-05-03T13:08:36.858Z,8880
2017-05-03T13:09:36.645Z,9144
2017-05-03T13:10:36.685Z,8356
2017-05-03T13:11:36.715Z,11448
2017-05-03T13:12:36.735Z,14312
2017-05-03T13:13:36.464Z,18592
2017-05-03T13:14:36.477Z,20928
2017-05-03T13:15:36.813Z,12916
2017-05-03T13:16:36.538Z,8484
2017-05-03T13:17:36.575Z,7272
2017-05-03T13:18:36.603Z,7232
2017-05-03T13:19:36.944Z,7864
2017-05-03T13:20:36.974Z,9216
2017-05-03T13:21:36.378Z,10324
2017-05-03T13:22:36.715Z,11408
2017-05-03T13:23:37.064Z,12376
2017-05-03T13:24:37.089Z,16556
2017-05-03T13:25:37.113Z,24096
2017-05-03T13:26:37.153Z,43360
2017-05-03T13:27:37.182Z,24192
2017-05-03T13:28:37.205Z,20256
2017-05-03T13:29:37.491Z,17428
2017-05-03T13:30:36.957Z,19456
2017-05-03T13:31:37.001Z,19360
2017-05-03T13:32:37.014Z,18656
2017-05-03T13:33:37.046Z,17628
2017-05-03T13:34:37.645Z,16884
2017-05-03T13:35:37.106Z,17864
2017-05-03T13:36:37.445Z,13200
2017-05-03T13:37:37.469Z,9896
2017-05-03T13:38:37.502Z,7932
2017-05-03T13:39:37.786Z,7412
2017-05-03T13:40:37.245Z,6644
2017-05-03T13:41:37.286Z,5824
2017-05-03T13:42:37.307Z,5252
2017-05-03T13:43:37.340Z,4892
2017-05-03T13:44:37.931Z,4636